Pagrindinis puslapis
METAR-TAF:

METAR-TAF

Oro uostai :

Paros, Graikija

platuma: 37-01-15N, ilguma: 025-06-46E, Aukštis: 38 m

Dabartinis oras

Ataskaita buvo paskelbta 30 minutes, ne 06:20 UTC
Vėjas 5 kt iš Vakarų/Šiaurės Vakarų
Temperatūra 21°C
Drėgmė 60%
Slėgis 1013 hPa
Matomumas 10 km arba daugiau
nėra debesų žemiau 1500 m ir nėra kamuolinių lietaus debesų

METAR: LGPA 140620Z 29005KT CAVOK 21/13 Q1013

Laikas: 09:50 (06:50 UTC)


TAF: trūkstamas

Orai ataskaitas ir orų prognozės (METAR, TAF).

turimą stotys yra geltonos ir raudonos taškus žemėlapyje.

Perkelti pele per norėdami pamatyti stoties vardą.

Tada spustelėkite, norėdami matyti oro stebėjimo ir prognozės.

Norėdami pakeisti žemėlapį: spustelėkite ant žalios mygtukų su juodo kryžiaus žemyn,; žalią mygtuką su brūkšneliu, jei norite nutolinti; arba žalių rodyklių gretimoms žemėlapius.


METAR-TAF: